Impacts METAR Board
IDs:

KDWH - Houston/Hooks Mem, TX, US

Updated at: 0600 UTC 19 Aug 2019
Potential Impact None Slight Moderate High
Time 18/18Z 18/19Z 18/20Z 18/21Z 18/22Z 18/23Z 19/00Z 19/01Z 19/02Z 19/03Z 19/04Z 19/05Z 19/06Z
Temp92 93 93 93 95 94 92 89 87 86 84 83 82
Dewpt76 73 72 74 73 73 70 71 71 73 74 75 75
Altim29.92 29.92 29.90 29.88 29.87 29.87 29.87 29.88 29.90 29.91 29.93 29.94 29.95
VIS10 10 10 10 10 10 10 10 10 10 10 10 10
CIG-- -- -- -- -- 55 -- -- -- -- -- -- --
CoverFEWCLRCLRFEWFEWBKNCLRCLRCLRCLRCLRCLRCLR
FltCatVFRVFRVFRVFRVFRVFRVFRVFRVFRVFRVFRVFRVFR
WX--------------------------
WDir21019020017018015018017017017017000
WSpd14 9 10 6 7 9 9 7 5 7 5 4 0
WGst19 16 16 -- -- 15 14 -- -- -- -- -- --
Raw hourly METARs
KDWH 181753Z 21014G19KT 10SM FEW055 33/24 A2992 RMK AO2 SLP129 T03330244 10344 20250 58004
KDWH 181853Z 19009G16KT 10SM CLR 34/23 A2992 RMK AO2 SLP128 T03390228
KDWH 181953Z 20010G16KT 10SM CLR 34/22 A2990 RMK AO2 SLP122 T03390222
KDWH 182053Z 17006KT 10SM FEW049 34/23 A2988 RMK AO2 SLP115 T03390233 58014
KDWH 182153Z 18007KT 10SM FEW050 35/23 A2987 RMK AO2 SLP111 T03500228
KDWH 182253Z 15009G15KT 10SM BKN055 BKN075 34/23 A2987 RMK AO2 SLP113 T03440228
KDWH 182353Z 18009G14KT 10SM CLR 33/21 A2987 RMK AO2 SLP114 T03330211 10350 20322 55002
KDWH 190053Z 17007KT 150V210 10SM CLR 32/22 A2988 RMK AO2 SLP117 T03170217
KDWH 190153Z 17005KT 10SM CLR 31/22 A2990 RMK AO2 SLP121 T03060217
KDWH 190253Z 17007KT 10SM CLR 30/23 A2991 RMK AO2 SLP125 T03000228 53012
KDWH 190353Z AUTO 17005KT 10SM CLR 29/23 A2993 RMK AO2 SLP134 T02890233
KDWH 190453Z AUTO VRB04KT 10SM CLR 28/24 A2994 RMK AO2 SLP133 T02830239
KDWH 190553Z AUTO 00000KT 10SM CLR 28/24 A2995 RMK AO2 SLP138 T02780239 10333 20278 403500250 51013



Page loaded:  06:29 UTC  |   11:29 PM Pacific  |   12:29 AM Mountain  |   01:29 AM Central  |   02:29 AM Eastern

 

ADVISORIES

FORECASTS

FORECASTS

OBSERVATIONS

USER TOOLS

ABOUT US